createdAt,value
2018-01-02T00:00:47.617Z,6.11
2018-01-02T00:01:47.862Z,6.11
2018-01-02T00:02:47.844Z,6.11
2018-01-02T00:03:47.822Z,6.07
2018-01-02T00:04:47.543Z,6.04
2018-01-02T00:05:47.518Z,6.06
2018-01-02T00:06:47.233Z,6.09
2018-01-02T00:07:47.474Z,6.09
2018-01-02T00:08:47.193Z,6.06
2018-01-02T00:09:47.435Z,6.07
2018-01-02T00:10:47.679Z,6.04
2018-01-02T00:11:47.659Z,6.07
2018-01-02T00:12:47.114Z,6.01
2018-01-02T00:13:47.093Z,6.06
2018-01-02T00:14:47.334Z,6
2018-01-02T00:15:47.313Z,6.01
2018-01-02T00:16:47.025Z,6.1
2018-01-02T00:17:47.537Z,6.06
2018-01-02T00:18:47.522Z,5.95
2018-01-02T00:19:46.968Z,5.98
2018-01-02T00:20:46.946Z,6.09
2018-01-02T00:21:47.185Z,5.95
2018-01-02T00:22:47.103Z,6.01
2018-01-02T00:23:47.147Z,6
2018-01-02T00:24:47.387Z,5.95
2018-01-02T00:25:47.103Z,6.03
2018-01-02T00:26:47.081Z,5.93
2018-01-02T00:27:47.062Z,5.98
2018-01-02T00:28:47.042Z,5.91
2018-01-02T00:29:47.028Z,6.07
2018-01-02T00:30:47.004Z,5.89
2018-01-02T00:31:47.254Z,5.88
2018-01-02T00:32:46.966Z,5.88
2018-01-02T00:33:46.943Z,5.93
2018-01-02T00:34:46.657Z,5.96
2018-01-02T00:35:47.163Z,5.93
2018-01-02T00:36:46.875Z,5.93
2018-01-02T00:37:47.181Z,5.95
2018-01-02T00:38:46.839Z,5.95
2018-01-02T00:39:46.815Z,6
2018-01-02T00:40:46.795Z,6
2018-01-02T00:41:46.782Z,5.95
2018-01-02T00:42:47.015Z,5.93
2018-01-02T00:43:46.998Z,5.96
2018-01-02T00:44:46.975Z,5.95
2018-01-02T00:45:46.428Z,6
2018-01-02T00:46:46.410Z,5.92
2018-01-02T00:47:46.387Z,5.93
2018-01-02T00:48:46.368Z,5.88
2018-01-02T00:49:46.609Z,5.96
2018-01-02T00:50:46.322Z,6
2018-01-02T00:51:46.302Z,5.98
2018-01-02T00:52:46.542Z,6
2018-01-02T00:53:46.257Z,5.95
2018-01-02T00:54:46.503Z,5.96
2018-01-02T00:55:46.222Z,5.96
2018-01-02T00:56:46.462Z,5.93
2018-01-02T00:57:46.445Z,6
2018-01-02T00:58:46.155Z,6.01
2018-01-02T00:59:46.709Z,6
2018-01-02T01:00:46.643Z,5.85
2018-01-02T01:01:46.358Z,5.93
2018-01-02T01:02:46.599Z,6.06
2018-01-02T01:03:46.320Z,5.95
2018-01-02T01:04:46.295Z,5.93
2018-01-02T01:05:46.282Z,5.96
2018-01-02T01:06:46.526Z,5.91
2018-01-02T01:07:46.510Z,5.93
2018-01-02T01:08:46.475Z,5.91
2018-01-02T01:09:46.202Z,5.91
2018-01-02T01:10:46.434Z,5.96
2018-01-02T01:11:45.904Z,5.88
2018-01-02T01:12:46.390Z,5.93
2018-01-02T01:13:46.127Z,5.91
2018-01-02T01:14:45.824Z,5.93
2018-01-02T01:15:45.829Z,5.96
2018-01-02T01:16:46.311Z,5.96
2018-01-02T01:17:46.026Z,6
2018-01-02T01:18:46.014Z,5.95
2018-01-02T01:19:45.982Z,6
2018-01-02T01:20:46.226Z,5.98
2018-01-02T01:21:46.213Z,5.98
2018-01-02T01:22:46.185Z,6
2018-01-02T01:23:45.906Z,5.89
2018-01-02T01:24:45.924Z,5.96
2018-01-02T01:25:46.127Z,5.95
2018-01-02T01:26:46.102Z,5.85
2018-01-02T01:27:46.142Z,5.86
2018-01-02T01:28:46.058Z,5.96
2018-01-02T01:29:45.815Z,5.88
2018-01-02T01:30:46.051Z,5.89
2018-01-02T01:31:45.997Z,5.85
2018-01-02T01:32:45.446Z,5.82
2018-01-02T01:33:45.956Z,5.83
2018-01-02T01:34:45.945Z,5.85
2018-01-02T01:35:45.648Z,5.88
2018-01-02T01:36:45.891Z,5.85
2018-01-02T01:37:45.877Z,5.81
2018-01-02T01:38:45.590Z,5.83
2018-01-02T01:39:45.568Z,5.81
2018-01-02T01:40:45.281Z,5.82
2018-01-02T01:41:45.790Z,5.82
2018-01-02T01:42:45.501Z,5.83
2018-01-02T01:43:45.226Z,5.81
2018-01-02T01:44:45.725Z,5.83
2018-01-02T01:45:45.439Z,5.78
2018-01-02T01:46:45.419Z,5.82
2018-01-02T01:47:45.669Z,5.74
2018-01-02T01:48:45.379Z,5.74
2018-01-02T01:49:45.617Z,5.85
2018-01-02T01:50:45.348Z,5.78
2018-01-02T01:51:45.058Z,5.75
2018-01-02T01:52:45.036Z,5.73
2018-01-02T01:53:45.011Z,5.73
2018-01-02T01:54:45.252Z,5.71
2018-01-02T01:55:45.234Z,5.74
2018-01-02T01:56:44.946Z,5.71
2018-01-02T01:57:45.454Z,5.73
2018-01-02T01:58:45.169Z,5.7
2018-01-02T01:59:45.419Z,5.63
2018-01-02T02:00:44.870Z,5.75
2018-01-02T02:01:45.111Z,5.73
2018-01-02T02:02:45.092Z,5.73
2018-01-02T02:03:44.801Z,5.67
2018-01-02T02:04:45.046Z,5.73
2018-01-02T02:05:45.288Z,5.7
2018-01-02T02:06:45.002Z,5.77
2018-01-02T02:07:44.717Z,5.7
2018-01-02T02:08:44.704Z,5.68
2018-01-02T02:09:44.685Z,5.75
2018-01-02T02:10:44.920Z,5.71
2018-01-02T02:11:44.900Z,5.71
2018-01-02T02:12:44.878Z,5.74
2018-01-02T02:13:44.598Z,5.74
2018-01-02T02:14:44.835Z,5.68
2018-01-02T02:15:44.812Z,5.75
2018-01-02T02:16:45.059Z,5.71
2018-01-02T02:17:44.511Z,5.75
2018-01-02T02:18:44.750Z,5.75
2018-01-02T02:19:44.734Z,5.73
2018-01-02T02:20:44.976Z,5.78
2018-01-02T02:21:44.687Z,5.83
2018-01-02T02:22:44.607Z,5.83
2018-01-02T02:23:44.652Z,5.81
2018-01-02T02:24:44.913Z,5.77
2018-01-02T02:25:44.619Z,5.81
2018-01-02T02:26:44.586Z,5.73
2018-01-02T02:27:44.305Z,5.74
2018-01-02T02:28:44.546Z,5.73
2018-01-02T02:29:44.784Z,5.7
2018-01-02T02:30:44.507Z,5.75
2018-01-02T02:31:44.491Z,5.78
2018-01-02T02:32:44.723Z,5.74
2018-01-02T02:33:44.177Z,5.77
2018-01-02T02:34:44.428Z,5.83
2018-01-02T02:35:44.405Z,5.74
2018-01-02T02:36:44.649Z,5.81
2018-01-02T02:37:44.630Z,5.82
2018-01-02T02:38:44.072Z,5.78
2018-01-02T02:39:44.583Z,5.78
2018-01-02T02:40:44.558Z,5.78
2018-01-02T02:41:44.279Z,5.81
2018-01-02T02:42:44.522Z,5.86
2018-01-02T02:43:44.238Z,5.82
2018-01-02T02:44:44.213Z,5.78
2018-01-02T02:45:44.458Z,5.81
2018-01-02T02:46:44.443Z,5.81
2018-01-02T02:47:44.158Z,5.78
2018-01-02T02:48:44.144Z,5.78
2018-01-02T02:49:44.119Z,5.86
2018-01-02T02:50:44.360Z,5.86
2018-01-02T02:51:44.337Z,5.82
2018-01-02T02:52:44.325Z,5.81
2018-01-02T02:53:44.296Z,5.82
2018-01-02T02:54:43.743Z,5.82
2018-01-02T02:55:44.251Z,5.88
2018-01-02T02:56:43.965Z,5.88
2018-01-02T02:57:43.974Z,5.88
2018-01-02T02:58:44.197Z,5.88
2018-01-02T02:59:44.167Z,5.88
2018-01-02T03:00:44.146Z,5.91
2018-01-02T03:01:43.870Z,5.88
2018-01-02T03:02:43.842Z,5.86
2018-01-02T03:03:43.838Z,5.88
2018-01-02T03:04:43.800Z,5.98
2018-01-02T03:05:44.091Z,5.93
2018-01-02T03:06:44.022Z,5.98
2018-01-02T03:07:44.007Z,5.89
2018-01-02T03:08:43.715Z,5.93
2018-01-02T03:09:43.979Z,5.95
2018-01-02T03:10:43.676Z,5.89
2018-01-02T03:11:43.942Z,5.96
2018-01-02T03:12:43.900Z,5.98
2018-01-02T03:13:43.615Z,5.95
2018-01-02T03:14:43.592Z,6.03
2018-01-02T03:15:43.579Z,5.95
2018-01-02T03:16:43.558Z,5.93
2018-01-02T03:17:43.530Z,5.98
2018-01-02T03:18:43.510Z,5.98
2018-01-02T03:19:43.225Z,6.07
2018-01-02T03:20:43.466Z,5.98
2018-01-02T03:21:43.189Z,6
2018-01-02T03:22:43.432Z,5.96
2018-01-02T03:23:43.693Z,5.92
2018-01-02T03:24:43.388Z,5.93
2018-01-02T03:25:43.369Z,5.92
2018-01-02T03:26:43.355Z,5.96
2018-01-02T03:27:43.118Z,5.91
2018-01-02T03:28:43.569Z,5.96
2018-01-02T03:29:43.023Z,5.98
2018-01-02T03:30:43.279Z,5.98
2018-01-02T03:31:43.249Z,6.01
2018-01-02T03:32:42.959Z,6.09
2018-01-02T03:33:43.203Z,6.03
2018-01-02T03:34:43.183Z,6.1
2018-01-02T03:35:43.427Z,6.03
2018-01-02T03:36:43.196Z,6.04
2018-01-02T03:37:43.434Z,6.09
2018-01-02T03:38:43.369Z,6.06
2018-01-02T03:39:43.350Z,6.01
2018-01-02T03:40:43.326Z,6.09
2018-01-02T03:41:43.043Z,6.06
2018-01-02T03:42:42.756Z,6.06
2018-01-02T03:43:42.998Z,6.06
2018-01-02T03:44:43.244Z,6.13
2018-01-02T03:45:42.962Z,6.07
2018-01-02T03:46:42.673Z,6.1
2018-01-02T03:47:42.857Z,6.11
2018-01-02T03:48:42.635Z,6.04
2018-01-02T03:49:43.139Z,6.1
2018-01-02T03:50:42.858Z,6.13
2018-01-02T03:51:43.104Z,6.04
2018-01-02T03:52:42.818Z,6.14
2018-01-02T03:53:43.056Z,6.14
2018-01-02T03:54:42.516Z,6.14
2018-01-02T03:55:43.019Z,6.11
2018-01-02T03:56:42.737Z,6.11
2018-01-02T03:57:42.452Z,6.1
2018-01-02T03:58:42.692Z,6.13
2018-01-02T03:59:42.675Z,6.21
2018-01-02T04:00:42.912Z,6.13
2018-01-02T04:01:42.897Z,6.26
2018-01-02T04:02:42.879Z,6.16
2018-01-02T04:03:42.609Z,6.25
2018-01-02T04:04:42.571Z,6.21
2018-01-02T04:05:42.558Z,6.19
2018-01-02T04:06:42.792Z,6.19
2018-01-02T04:07:42.510Z,6.21
2018-01-02T04:08:42.227Z,6.19
2018-01-02T04:09:42.730Z,6.22
2018-01-02T04:10:42.449Z,6.26
2018-01-02T04:11:42.689Z,6.25
2018-01-02T04:12:42.672Z,6.22
2018-01-02T04:13:42.390Z,6.19
2018-01-02T04:14:42.364Z,6.21
2018-01-02T04:15:42.391Z,6.21
2018-01-02T04:16:42.324Z,6.21
2018-01-02T04:17:42.041Z,6.19
2018-01-02T04:18:42.021Z,6.25
2018-01-02T04:19:42.001Z,6.14
2018-01-02T04:20:42.244Z,6.22
2018-01-02T04:21:42.218Z,6.19
2018-01-02T04:22:42.609Z,6.21
2018-01-02T04:23:42.444Z,6.22
2018-01-02T04:24:41.895Z,6.19
2018-01-02T04:25:42.404Z,6.22
2018-01-02T04:26:41.853Z,6.22
2018-01-02T04:27:42.366Z,6.19
2018-01-02T04:28:42.077Z,6.21
2018-01-02T04:29:42.058Z,6.25
2018-01-02T04:30:42.038Z,6.26
2018-01-02T04:31:42.278Z,6.22
2018-01-02T04:32:41.732Z,6.25
2018-01-02T04:33:41.763Z,6.21
2018-01-02T04:34:41.961Z,6.22
2018-01-02T04:35:41.942Z,6.19
2018-01-02T04:36:41.916Z,6.19
2018-01-02T04:37:41.895Z,6.21
2018-01-02T04:38:41.610Z,6.21
2018-01-02T04:39:41.860Z,6.22
2018-01-02T04:40:41.833Z,6.25
2018-01-02T04:41:42.080Z,6.22
2018-01-02T04:42:41.786Z,6.26
2018-01-02T04:43:41.502Z,6.22
2018-01-02T04:44:41.743Z,6.19
2018-01-02T04:45:41.991Z,6.19
2018-01-02T04:46:41.704Z,6.25
2018-01-02T04:47:41.699Z,6.25
2018-01-02T04:48:41.665Z,6.19
2018-01-02T04:49:41.657Z,6.18
2018-01-02T04:50:41.622Z,6.19
2018-01-02T04:51:41.624Z,6.18
2018-01-02T04:52:41.846Z,6.26
2018-01-02T04:53:41.295Z,6.22
2018-01-02T04:54:41.807Z,6.21
2018-01-02T04:55:41.795Z,6.26
2018-01-02T04:56:41.500Z,6.26
2018-01-02T04:57:41.477Z,6.22
2018-01-02T04:58:41.458Z,6.21
2018-01-02T04:59:41.717Z,6.19
2018-01-02T05:00:41.678Z,6.25
2018-01-02T05:01:41.698Z,6.21
2018-01-02T05:02:41.374Z,6.22
2018-01-02T05:03:41.358Z,6.26
2018-01-02T05:04:41.335Z,6.21
2018-01-02T05:05:41.058Z,6.25
2018-01-02T05:06:41.294Z,6.22
2018-01-02T05:07:41.271Z,6.21
2018-01-02T05:08:41.251Z,6.26
2018-01-02T05:09:41.229Z,6.29
2018-01-02T05:10:40.946Z,6.26
2018-01-02T05:11:41.186Z,6.25
2018-01-02T05:12:41.433Z,6.26
2018-01-02T05:13:41.413Z,6.32
2018-01-02T05:14:41.127Z,6.32
2018-01-02T05:15:41.371Z,6.28
2018-01-02T05:16:41.081Z,6.32
2018-01-02T05:17:41.066Z,6.32
2018-01-02T05:18:41.311Z,6.21
2018-01-02T05:19:40.759Z,6.26
2018-01-02T05:20:41.004Z,6.18
2018-01-02T05:21:40.991Z,6.26
2018-01-02T05:22:41.224Z,6.11
2018-01-02T05:23:40.941Z,6.09
2018-01-02T05:24:40.921Z,6.07
2018-01-02T05:25:40.899Z,6.09
2018-01-02T05:26:41.150Z,6
2018-01-02T05:27:40.594Z,5.98
2018-01-02T05:28:40.571Z,6.03
2018-01-02T05:29:40.557Z,6
2018-01-02T05:30:41.060Z,6.04
2018-01-02T05:31:40.773Z,6.11
2018-01-02T05:32:40.493Z,6.03
2018-01-02T05:33:40.992Z,6.07
2018-01-02T05:34:40.447Z,6.11
2018-01-02T05:35:40.690Z,6.11
2018-01-02T05:36:40.936Z,6.18
2018-01-02T05:37:40.915Z,6.14
2018-01-02T05:38:40.628Z,6.1
2018-01-02T05:39:40.876Z,6.18
2018-01-02T05:40:40.372Z,6.18
2018-01-02T05:41:40.569Z,6.28
2018-01-02T05:42:40.284Z,6.16
2018-01-02T05:43:40.785Z,6.1
2018-01-02T05:44:40.765Z,6.21
2018-01-02T05:45:40.480Z,6.19
2018-01-02T05:46:40.462Z,6.11
2018-01-02T05:47:40.441Z,6.28
2018-01-02T05:48:40.424Z,6.25
2018-01-02T05:49:40.407Z,6.22
2018-01-02T05:50:40.116Z,6.22
2018-01-02T05:51:40.627Z,6.22
2018-01-02T05:52:40.336Z,6.18
2018-01-02T05:53:40.585Z,6.26
2018-01-02T05:54:40.564Z,6.22
2018-01-02T05:55:40.014Z,6.22
2018-01-02T05:56:40.522Z,6.18
2018-01-02T05:57:40.544Z,6.25
2018-01-02T05:58:40.218Z,6.16
2018-01-02T05:59:39.929Z,6.22
2018-01-02T06:00:40.437Z,6.22
2018-01-02T06:01:39.889Z,6.19
2018-01-02T06:02:40.134Z,6.25
2018-01-02T06:03:40.113Z,6.26
2018-01-02T06:04:40.089Z,6.32
2018-01-02T06:05:40.333Z,6.3
2018-01-02T06:06:40.052Z,6.26
2018-01-02T06:07:40.294Z,6.32
2018-01-02T06:08:39.745Z,6.25
2018-01-02T06:09:39.988Z,6.35
2018-01-02T06:10:39.706Z,6.32
2018-01-02T06:11:39.945Z,6.33
2018-01-02T06:12:39.668Z,6.32
2018-01-02T06:13:39.643Z,6.3
2018-01-02T06:14:40.162Z,6.35
2018-01-02T06:15:39.871Z,6.32
2018-01-02T06:16:39.846Z,6.28
2018-01-02T06:17:39.827Z,6.29
2018-01-02T06:18:39.804Z,6.3
2018-01-02T06:19:39.992Z,6.35
2018-01-02T06:20:39.761Z,6.36
2018-01-02T06:21:40.015Z,6.32
2018-01-02T06:22:39.468Z,6.33
2018-01-02T06:23:39.708Z,6.33
2018-01-02T06:24:39.423Z,6.3
2018-01-02T06:25:39.928Z,6.35
2018-01-02T06:26:39.908Z,6.36
2018-01-02T06:27:39.618Z,6.32
2018-01-02T06:28:39.340Z,6.32
2018-01-02T06:29:39.576Z,6.33
2018-01-02T06:30:39.557Z,6.33
2018-01-02T06:31:39.542Z,6.3
2018-01-02T06:32:39.519Z,6.38
2018-01-02T06:33:39.235Z,6.33
2018-01-02T06:34:39.476Z,6.32
2018-01-02T06:35:39.460Z,6.43
2018-01-02T06:36:39.436Z,6.38
2018-01-02T06:37:39.415Z,6.36
2018-01-02T06:38:39.657Z,6.41
2018-01-02T06:39:39.638Z,6.3
2018-01-02T06:40:39.091Z,6.33
2018-01-02T06:41:39.595Z,6.43
2018-01-02T06:42:39.316Z,6.43
2018-01-02T06:43:39.621Z,6.41
2018-01-02T06:44:39.537Z,6.4
2018-01-02T06:45:38.995Z,6.43
2018-01-02T06:46:39.236Z,6.46
2018-01-02T06:47:39.210Z,6.33
2018-01-02T06:48:39.201Z,6.33
2018-01-02T06:49:39.435Z,6.36
2018-01-02T06:50:39.412Z,6.36
2018-01-02T06:51:39.138Z,6.47
2018-01-02T06:52:39.108Z,6.46
2018-01-02T06:53:39.094Z,6.46
2018-01-02T06:54:38.809Z,6.44
2018-01-02T06:55:39.052Z,6.46
2018-01-02T06:56:39.025Z,6.5
2018-01-02T06:57:38.744Z,6.47
2018-01-02T06:58:39.249Z,6.5
2018-01-02T06:59:38.705Z,6.46
2018-01-02T07:00:38.943Z,6.46
2018-01-02T07:01:39.192Z,6.5
2018-01-02T07:02:38.906Z,6.5
2018-01-02T07:03:38.882Z,6.51
2018-01-02T07:04:38.867Z,6.51
2018-01-02T07:05:38.845Z,6.46
2018-01-02T07:06:39.085Z,6.48
2018-01-02T07:07:38.539Z,6.5
2018-01-02T07:08:38.522Z,6.5
2018-01-02T07:09:38.760Z,6.5
2018-01-02T07:10:38.483Z,6.54
2018-01-02T07:11:38.718Z,6.47
2018-01-02T07:12:38.966Z,6.58
2018-01-02T07:13:38.947Z,6.5
2018-01-02T07:14:38.659Z,6.54
2018-01-02T07:15:38.645Z,6.5
2018-01-02T07:16:38.881Z,6.54
2018-01-02T07:17:38.594Z,6.51
2018-01-02T07:18:38.309Z,6.62
2018-01-02T07:19:38.292Z,6.53
2018-01-02T07:20:38.537Z,6.53
2018-01-02T07:21:38.251Z,6.56
2018-01-02T07:22:38.493Z,6.53
2018-01-02T07:23:38.743Z,6.56
2018-01-02T07:24:38.191Z,6.56
2018-01-02T07:25:38.437Z,6.53
2018-01-02T07:26:38.412Z,6.56
2018-01-02T07:27:38.129Z,6.56
2018-01-02T07:28:38.372Z,6.59
2018-01-02T07:29:38.612Z,6.58
2018-01-02T07:30:38.331Z,6.65
2018-01-02T07:31:38.590Z,6.62
2018-01-02T07:32:38.552Z,6.54
2018-01-02T07:33:38.535Z,6.62
2018-01-02T07:34:38.511Z,6.53
2018-01-02T07:35:38.229Z,6.58
2018-01-02T07:36:38.210Z,6.66
2018-01-02T07:37:38.479Z,6.56
2018-01-02T07:38:37.902Z,6.61
2018-01-02T07:39:38.148Z,6.62
2018-01-02T07:40:38.390Z,6.65
2018-01-02T07:41:37.839Z,6.56
2018-01-02T07:42:38.350Z,6.62
2018-01-02T07:43:38.337Z,6.59
2018-01-02T07:44:38.306Z,6.61
2018-01-02T07:45:38.031Z,6.69
2018-01-02T07:46:37.742Z,6.76
2018-01-02T07:47:37.715Z,6.65
2018-01-02T07:48:37.961Z,6.61
2018-01-02T07:49:37.942Z,6.72
2018-01-02T07:50:37.929Z,6.62
2018-01-02T07:51:38.166Z,6.73
2018-01-02T07:52:38.150Z,6.69
2018-01-02T07:53:37.863Z,6.69
2018-01-02T07:54:37.846Z,6.71
2018-01-02T07:55:37.821Z,6.66
2018-01-02T07:56:37.802Z,6.72
2018-01-02T07:57:37.779Z,6.71
2018-01-02T07:58:37.758Z,6.72
2018-01-02T07:59:37.741Z,6.73
2018-01-02T08:00:37.456Z,6.77
2018-01-02T08:01:37.967Z,6.79
2018-01-02T08:02:37.415Z,6.8
2018-01-02T08:03:37.393Z,6.72
2018-01-02T08:04:37.900Z,6.81
2018-01-02T08:05:37.879Z,6.77
2018-01-02T08:06:37.603Z,6.83
2018-01-02T08:07:37.581Z,6.77
2018-01-02T08:08:37.563Z,6.86
2018-01-02T08:09:37.279Z,6.81
2018-01-02T08:10:37.516Z,6.84
2018-01-02T08:11:37.827Z,6.86
2018-01-02T08:12:37.212Z,6.86
2018-01-02T08:13:37.716Z,6.87
2018-01-02T08:14:37.709Z,6.89
2018-01-02T08:15:37.425Z,6.84
2018-01-02T08:16:37.427Z,6.91
2018-01-02T08:17:37.370Z,6.91
2018-01-02T08:18:37.357Z,6.87
2018-01-02T08:19:37.599Z,6.84
2018-01-02T08:20:37.311Z,6.89
2018-01-02T08:21:37.291Z,6.91
2018-01-02T08:22:37.275Z,6.89
2018-01-02T08:23:37.461Z,6.9
2018-01-02T08:24:36.968Z,6.9
2018-01-02T08:25:36.952Z,6.89
2018-01-02T08:26:37.454Z,6.91
2018-01-02T08:27:37.436Z,6.83
2018-01-02T08:28:37.155Z,6.89
2018-01-02T08:29:36.868Z,6.83
2018-01-02T08:30:37.378Z,6.91
2018-01-02T08:31:37.146Z,6.87
2018-01-02T08:32:37.068Z,6.84
2018-01-02T08:33:37.320Z,6.9
2018-01-02T08:34:36.770Z,6.87
2018-01-02T08:35:37.279Z,6.95
2018-01-02T08:36:36.990Z,6.84
2018-01-02T08:37:36.972Z,6.87
2018-01-02T08:38:36.953Z,6.95
2018-01-02T08:39:36.928Z,7.01
2018-01-02T08:40:37.182Z,6.97
2018-01-02T08:41:36.628Z,7.02
2018-01-02T08:42:36.873Z,7.04
2018-01-02T08:43:37.163Z,7.04
2018-01-02T08:44:36.831Z,7.05
2018-01-02T08:45:36.812Z,6.99
2018-01-02T08:46:37.056Z,7.02
2018-01-02T08:47:36.775Z,6.9
2018-01-02T08:48:36.753Z,6.97
2018-01-02T08:49:36.467Z,6.97
2018-01-02T08:50:36.980Z,6.95
2018-01-02T08:51:36.687Z,7.04
2018-01-02T08:52:36.672Z,6.99
2018-01-02T08:53:36.916Z,7.01
2018-01-02T08:54:36.363Z,6.95
2018-01-02T08:55:36.872Z,6.97
2018-01-02T08:56:36.588Z,6.99
2018-01-02T08:57:36.592Z,6.94
2018-01-02T08:58:36.551Z,7.05
2018-01-02T08:59:36.530Z,7.04
2018-01-02T09:00:36.247Z,7.04
2018-01-02T09:01:36.512Z,7.04
2018-01-02T09:02:36.479Z,6.91
2018-01-02T09:03:36.456Z,6.95
2018-01-02T09:04:36.432Z,6.98
2018-01-02T09:05:36.151Z,6.97
2018-01-02T09:06:36.451Z,7.05
2018-01-02T09:07:36.105Z,6.94
2018-01-02T09:08:36.615Z,7.04
2018-01-02T09:09:36.593Z,7.02
2018-01-02T09:10:36.043Z,7.02
2018-01-02T09:11:36.029Z,6.97
2018-01-02T09:12:36.271Z,6.97
2018-01-02T09:13:36.511Z,6.98
2018-01-02T09:14:35.964Z,6.94
2018-01-02T09:15:36.205Z,6.94
2018-01-02T09:16:36.452Z,6.98
2018-01-02T09:17:36.174Z,7.04
2018-01-02T09:18:36.149Z,7.01
2018-01-02T09:19:36.128Z,7.12
2018-01-02T09:20:36.110Z,7.15
2018-01-02T09:21:35.833Z,7.13
2018-01-02T09:22:35.805Z,7.2
2018-01-02T09:23:36.316Z,7.13
2018-01-02T09:24:36.025Z,7.16
2018-01-02T09:25:36.272Z,7.16
2018-01-02T09:26:35.723Z,7.23
2018-01-02T09:27:35.710Z,7.19
2018-01-02T09:28:35.948Z,7.24
2018-01-02T09:29:35.671Z,7.13
2018-01-02T09:30:35.918Z,7.16
2018-01-02T09:31:36.162Z,7.08
2018-01-02T09:32:35.867Z,7.16
2018-01-02T09:33:36.110Z,7.13
2018-01-02T09:34:35.834Z,7.09
2018-01-02T09:35:35.813Z,7.24
2018-01-02T09:36:36.057Z,7.09
2018-01-02T09:37:35.512Z,7.08
2018-01-02T09:38:36.012Z,7.16
2018-01-02T09:39:35.998Z,7.15
2018-01-02T09:40:35.980Z,7.17
2018-01-02T09:41:35.433Z,7.26
2018-01-02T09:42:35.936Z,7.15
2018-01-02T09:43:35.919Z,7.22
2018-01-02T09:44:35.641Z,7.16
2018-01-02T09:45:35.634Z,7.15
2018-01-02T09:46:35.870Z,7.17
2018-01-02T09:47:35.578Z,7.16
2018-01-02T09:48:35.820Z,7.24
2018-01-02T09:49:35.539Z,7.26
2018-01-02T09:50:35.515Z,7.2
2018-01-02T09:51:35.500Z,7.22
2018-01-02T09:52:35.753Z,7.24
2018-01-02T09:53:35.723Z,7.26
2018-01-02T09:54:35.178Z,7.31
2018-01-02T09:55:35.682Z,7.31
2018-01-02T09:56:35.134Z,7.4
2018-01-02T09:57:35.117Z,7.55
2018-01-02T09:58:35.361Z,7.53
2018-01-02T09:59:35.350Z,7.53
2018-01-02T10:00:35.066Z,7.55
2018-01-02T10:01:35.040Z,7.56
2018-01-02T10:02:35.281Z,7.55
2018-01-02T10:03:35.272Z,7.55
2018-01-02T10:04:35.244Z,7.45
2018-01-02T10:05:35.228Z,7.35
2018-01-02T10:06:35.215Z,7.35
2018-01-02T10:07:35.198Z,7.35
2018-01-02T10:08:35.174Z,7.27
2018-01-02T10:09:35.152Z,7.32
2018-01-02T10:10:35.133Z,7.31
2018-01-02T10:11:35.112Z,7.24
2018-01-02T10:12:34.841Z,7.31
2018-01-02T10:13:35.070Z,7.24
2018-01-02T10:14:35.052Z,7.31
2018-01-02T10:15:35.034Z,7.24
2018-01-02T10:16:35.280Z,7.23
2018-01-02T10:17:34.731Z,7.26
2018-01-02T10:18:34.976Z,7.24
2018-01-02T10:19:34.696Z,7.26
2018-01-02T10:20:34.941Z,7.26
2018-01-02T10:21:34.921Z,7.26
2018-01-02T10:22:35.160Z,7.32
2018-01-02T10:23:35.083Z,7.26
2018-01-02T10:24:34.599Z,7.26
2018-01-02T10:25:34.842Z,7.31
2018-01-02T10:26:35.087Z,7.34
2018-01-02T10:27:35.069Z,7.37
2018-01-02T10:28:34.517Z,7.45
2018-01-02T10:29:34.762Z,7.49
2018-01-02T10:30:34.490Z,7.42
2018-01-02T10:31:34.985Z,7.37
2018-01-02T10:32:34.970Z,7.44
2018-01-02T10:33:34.950Z,7.4
2018-01-02T10:34:34.672Z,7.47
2018-01-02T10:35:34.921Z,7.71
2018-01-02T10:36:34.369Z,7.81
2018-01-02T10:37:34.661Z,7.79
2018-01-02T10:38:34.600Z,7.77
2018-01-02T10:39:34.841Z,7.79
2018-01-02T10:40:34.556Z,7.66
2018-01-02T10:41:34.796Z,7.67
2018-01-02T10:42:34.517Z,7.62
2018-01-02T10:43:34.492Z,7.55
2018-01-02T10:44:34.216Z,7.59
2018-01-02T10:45:34.455Z,7.58
2018-01-02T10:46:34.701Z,7.49
2018-01-02T10:47:34.468Z,7.47
2018-01-02T10:48:34.399Z,7.5
2018-01-02T10:49:34.112Z,7.49
2018-01-02T10:50:34.362Z,7.4
2018-01-02T10:51:34.075Z,7.49
2018-01-02T10:52:34.057Z,7.5
2018-01-02T10:53:34.037Z,7.45
2018-01-02T10:54:34.026Z,7.5
2018-01-02T10:55:34.600Z,7.53
2018-01-02T10:56:34.505Z,7.35
2018-01-02T10:57:34.224Z,7.42
2018-01-02T10:58:33.942Z,7.45
2018-01-02T10:59:34.454Z,7.35
2018-01-02T11:00:34.172Z,7.42
2018-01-02T11:01:33.880Z,7.44
2018-01-02T11:02:34.123Z,7.4
2018-01-02T11:03:34.142Z,7.45
2018-01-02T11:04:34.347Z,7.53
2018-01-02T11:05:34.070Z,7.47
2018-01-02T11:06:34.051Z,7.44
2018-01-02T11:07:34.039Z,7.52
2018-01-02T11:08:34.008Z,7.53
2018-01-02T11:09:33.999Z,7.58
2018-01-02T11:10:33.714Z,7.52
2018-01-02T11:11:33.953Z,7.58
2018-01-02T11:12:33.933Z,7.62
2018-01-02T11:13:33.924Z,7.58
2018-01-02T11:14:34.166Z,7.55
2018-01-02T11:15:34.148Z,7.63
2018-01-02T11:16:33.853Z,7.69
2018-01-02T11:17:34.101Z,7.62
2018-01-02T11:18:34.082Z,7.71
2018-01-02T11:19:33.796Z,7.66
2018-01-02T11:20:33.777Z,7.67
2018-01-02T11:21:34.029Z,7.66
2018-01-02T11:22:33.480Z,7.77
2018-01-02T11:23:33.460Z,7.74
2018-01-02T11:24:33.706Z,7.81
2018-01-02T11:25:33.955Z,7.79
2018-01-02T11:26:33.925Z,7.85
2018-01-02T11:27:33.645Z,7.85
2018-01-02T11:28:33.418Z,7.85
2018-01-02T11:29:33.611Z,7.82
2018-01-02T11:30:33.323Z,7.81
2018-01-02T11:31:33.311Z,7.87
2018-01-02T11:32:33.835Z,7.87
2018-01-02T11:33:33.581Z,7.85
2018-01-02T11:34:33.516Z,7.79
2018-01-02T11:35:33.239Z,7.93
2018-01-02T11:36:33.219Z,7.87
2018-01-02T11:37:33.199Z,7.81
2018-01-02T11:38:33.456Z,7.9
2018-01-02T11:39:33.432Z,7.89
2018-01-02T11:40:33.445Z,7.79
2018-01-02T11:41:33.123Z,7.71
2018-01-02T11:42:33.364Z,7.79
2018-01-02T11:43:33.357Z,7.85
2018-01-02T11:44:33.601Z,7.71
2018-01-02T11:45:33.633Z,7.77
2018-01-02T11:46:33.294Z,7.82
2018-01-02T11:47:33.012Z,7.79
2018-01-02T11:48:33.302Z,7.79
2018-01-02T11:49:33.506Z,7.89
2018-01-02T11:50:33.215Z,7.9
2018-01-02T11:51:33.469Z,7.81
2018-01-02T11:52:32.912Z,7.82
2018-01-02T11:53:32.895Z,7.89
2018-01-02T11:54:33.404Z,7.9
2018-01-02T11:55:33.422Z,7.89
2018-01-02T11:56:32.842Z,7.81
2018-01-02T11:57:33.082Z,7.89
2018-01-02T11:58:33.335Z,7.84
2018-01-02T11:59:32.791Z,7.84
2018-01-02T12:00:32.769Z,7.84
2018-01-02T12:01:33.009Z,7.89
2018-01-02T12:02:32.729Z,7.79
2018-01-02T12:03:33.027Z,7.85
2018-01-02T12:04:32.950Z,7.87
2018-01-02T12:05:32.932Z,7.79
2018-01-02T12:06:32.650Z,7.78
2018-01-02T12:07:32.902Z,7.89
2018-01-02T12:08:33.143Z,7.85
2018-01-02T12:09:32.863Z,7.78
2018-01-02T12:10:32.897Z,7.82
2018-01-02T12:11:32.821Z,7.85
2018-01-02T12:12:32.806Z,7.87
2018-01-02T12:13:33.057Z,7.87
2018-01-02T12:14:32.503Z,7.92
2018-01-02T12:15:33.015Z,7.93
2018-01-02T12:16:32.731Z,7.79
2018-01-02T12:17:32.703Z,7.81
2018-01-02T12:18:32.422Z,7.81
2018-01-02T12:19:32.667Z,7.92
2018-01-02T12:20:32.656Z,7.85
2018-01-02T12:21:32.639Z,7.89
2018-01-02T12:22:32.891Z,7.85
2018-01-02T12:23:33.067Z,7.92
2018-01-02T12:24:32.836Z,7.85
2018-01-02T12:25:32.561Z,7.9
2018-01-02T12:26:32.807Z,7.84
2018-01-02T12:27:32.515Z,7.93
2018-01-02T12:28:32.502Z,7.84
2018-01-02T12:29:32.480Z,7.85
2018-01-02T12:30:32.733Z,7.81
2018-01-02T12:31:32.181Z,7.9
2018-01-02T12:32:32.696Z,7.92
2018-01-02T12:33:32.674Z,7.82
2018-01-02T12:34:32.759Z,7.85
2018-01-02T12:35:32.368Z,7.89
2018-01-02T12:36:32.352Z,7.89
2018-01-02T12:37:32.595Z,7.94
2018-01-02T12:38:32.308Z,7.84
2018-01-02T12:39:32.025Z,7.81
2018-01-02T12:40:32.276Z,7.92
2018-01-02T12:41:32.252Z,7.78
2018-01-02T12:42:32.236Z,7.79
2018-01-02T12:43:32.475Z,7.79
2018-01-02T12:44:32.196Z,7.81
2018-01-02T12:45:32.447Z,7.78
2018-01-02T12:46:32.420Z,7.78
2018-01-02T12:47:31.877Z,7.85
2018-01-02T12:48:31.866Z,7.81
2018-01-02T12:49:31.853Z,7.79
2018-01-02T12:50:31.816Z,7.84
2018-01-02T12:51:32.061Z,7.87
2018-01-02T12:52:32.046Z,7.82
2018-01-02T12:53:32.025Z,7.96
2018-01-02T12:54:32.210Z,7.87
2018-01-02T12:55:32.253Z,7.92
2018-01-02T12:56:31.969Z,7.96
2018-01-02T12:57:32.222Z,7.99
2018-01-02T12:58:32.206Z,8.07
2018-01-02T12:59:32.179Z,8.15
2018-01-02T13:00:31.891Z,8.37
2018-01-02T13:01:32.136Z,8.44
2018-01-02T13:02:31.860Z,8.5
2018-01-02T13:03:32.107Z,8.44
2018-01-02T13:04:31.555Z,8.48
2018-01-02T13:05:31.801Z,8.65
2018-01-02T13:06:31.782Z,8.63
2018-01-02T13:07:31.778Z,8.73
2018-01-02T13:08:31.744Z,8.97
2018-01-02T13:09:31.728Z,9.25
2018-01-02T13:10:32.217Z,9.45
2018-01-02T13:11:31.957Z,9.46
2018-01-02T13:12:31.946Z,9.32
2018-01-02T13:13:31.395Z,9.25
2018-01-02T13:14:31.923Z,9.05
2018-01-02T13:15:31.366Z,9.09
2018-01-02T13:16:31.614Z,9.35
2018-01-02T13:17:31.330Z,9.57
2018-01-02T13:18:31.570Z,9.64
2018-01-02T13:19:31.295Z,9.35
2018-01-02T13:20:31.542Z,9.24
2018-01-02T13:21:31.527Z,9.23